createdAt,value
2022-11-10T00:00:21.149Z,51.95
2022-11-10T00:03:28.484Z,49.80
2022-11-10T00:06:37.143Z,49.42
2022-11-10T00:09:44.422Z,49.70
2022-11-10T00:12:52.353Z,52.22
2022-11-10T00:16:22.177Z,56.78
2022-11-10T00:19:29.520Z,49.83
2022-11-10T00:22:39.675Z,51.17
2022-11-10T00:25:46.695Z,55.97
2022-11-10T00:28:55.172Z,52.22
2022-11-10T00:32:02.173Z,51.85
2022-11-10T00:35:10.185Z,49.28
2022-11-10T00:38:18.986Z,54.85
2022-11-10T00:41:26.264Z,47.63
2022-11-10T00:44:33.469Z,50.60
2022-11-10T00:47:40.467Z,49.42
2022-11-10T00:50:47.516Z,56.38
2022-11-10T00:53:56.743Z,48.25
2022-11-10T00:57:04.182Z,52.47
2022-11-10T01:00:11.922Z,46.25
2022-11-10T01:03:20.362Z,48.75
2022-11-10T01:06:27.898Z,49.17
2022-11-10T01:09:36.184Z,51.35
2022-11-10T01:12:43.541Z,47.70
2022-11-10T01:15:50.729Z,53.85
2022-11-10T01:18:59.369Z,48.97
2022-11-10T01:22:06.426Z,52.60
2022-11-10T01:25:15.047Z,49.85
2022-11-10T01:28:22.283Z,48.53
2022-11-10T01:31:29.313Z,53.03
2022-11-10T01:34:36.647Z,48.80
2022-11-10T01:37:44.501Z,48.55
2022-11-10T01:40:53.785Z,50.08
2022-11-10T01:44:18.892Z,49.20
2022-11-10T01:47:26.644Z,53.55
2022-11-10T01:50:38.796Z,48.33
2022-11-10T01:53:50.684Z,54.30
2022-11-10T01:57:02.058Z,52.28
2022-11-10T02:00:11.120Z,54.08
2022-11-10T02:03:25.305Z,54.95
2022-11-10T02:06:36.228Z,47.80
2022-11-10T02:09:43.206Z,51.40
2022-11-10T02:12:51.924Z,53.00
2022-11-10T02:15:59.266Z,48.30
2022-11-10T02:19:18.407Z,51.70
2022-11-10T02:22:27.060Z,52.72
2022-11-10T02:25:34.197Z,50.40
2022-11-10T02:28:41.393Z,53.30
2022-11-10T02:31:48.555Z,53.08
2022-11-10T02:34:55.708Z,52.35
2022-11-10T02:38:04.265Z,55.92
2022-11-10T02:41:11.095Z,50.40
2022-11-10T02:44:17.936Z,53.03
2022-11-10T02:47:24.898Z,51.15
2022-11-10T02:50:32.111Z,51.70
2022-11-10T02:53:40.426Z,48.63
2022-11-10T02:56:47.493Z,49.67
2022-11-10T02:59:54.835Z,50.90
2022-11-10T03:03:03.357Z,52.17
2022-11-10T03:06:10.516Z,52.80
2022-11-10T03:09:19.037Z,52.63
2022-11-10T03:12:26.529Z,45.63
2022-11-10T03:15:33.923Z,47.80
2022-11-10T03:18:41.189Z,52.67
2022-11-10T03:21:47.948Z,48.95
2022-11-10T03:24:56.379Z,52.40
2022-11-10T03:28:03.385Z,55.88
2022-11-10T03:31:10.153Z,53.83
2022-11-10T03:34:17.032Z,49.75
2022-11-10T03:37:24.020Z,52.55
2022-11-10T03:40:45.545Z,52.13
2022-11-10T03:44:00.005Z,50.85
2022-11-10T03:47:07.109Z,51.72
2022-11-10T03:50:13.902Z,52.40
2022-11-10T03:53:21.239Z,49.53
2022-11-10T03:56:29.893Z,51.92
2022-11-10T03:59:36.873Z,56.63
2022-11-10T04:02:44.281Z,55.63
2022-11-10T04:06:05.441Z,54.38
2022-11-10T04:09:12.568Z,49.63
2022-11-10T04:12:38.620Z,52.05
2022-11-10T04:15:45.581Z,55.20
2022-11-10T04:18:52.836Z,52.13
2022-11-10T04:21:59.794Z,54.67
2022-11-10T04:25:07.993Z,55.65
2022-11-10T04:28:16.359Z,50.30
2022-11-10T04:31:25.014Z,53.28
2022-11-10T04:34:32.065Z,55.40
2022-11-10T04:37:39.107Z,52.13
2022-11-10T04:40:46.135Z,55.00
2022-11-10T04:43:54.749Z,55.78
2022-11-10T04:47:01.825Z,53.92
2022-11-10T04:50:09.228Z,55.30
2022-11-10T04:53:16.573Z,56.92
2022-11-10T04:56:24.995Z,52.30
2022-11-10T04:59:33.532Z,57.30
2022-11-10T05:02:40.703Z,57.03
2022-11-10T05:05:49.235Z,55.88
2022-11-10T05:08:56.076Z,55.85
2022-11-10T05:12:03.236Z,55.47
2022-11-10T05:15:12.819Z,57.38
2022-11-10T05:18:20.275Z,54.13
2022-11-10T05:21:27.593Z,60.28
2022-11-10T05:24:34.900Z,60.55
2022-11-10T05:27:42.307Z,57.05
2022-11-10T05:30:50.939Z,57.85
2022-11-10T05:33:58.298Z,57.58
2022-11-10T05:37:05.479Z,56.38
2022-11-10T05:40:13.024Z,64.60
2022-11-10T05:43:20.564Z,63.80
2022-11-10T05:46:29.142Z,57.25
2022-11-10T05:49:36.075Z,62.60
2022-11-10T05:52:49.996Z,63.60
2022-11-10T05:55:57.614Z,66.45
2022-11-10T05:59:04.831Z,72.40
2022-11-10T06:02:13.277Z,66.82
2022-11-10T06:05:20.191Z,64.88
2022-11-10T06:08:27.252Z,67.68
2022-11-10T06:11:34.028Z,63.00
2022-11-10T06:14:41.344Z,65.47
2022-11-10T06:17:50.415Z,65.30
2022-11-10T06:20:57.536Z,61.20
2022-11-10T06:24:05.017Z,66.93
2022-11-10T06:27:12.172Z,62.35
2022-11-10T06:30:19.098Z,61.40
2022-11-10T06:33:27.557Z,63.80
2022-11-10T06:36:34.689Z,64.70
2022-11-10T06:39:41.376Z,60.05
2022-11-10T06:42:49.038Z,65.57
2022-11-10T06:45:56.125Z,60.70
2022-11-10T06:49:04.841Z,64.85
2022-11-10T06:52:11.573Z,60.70
2022-11-10T06:55:19.049Z,61.45
2022-11-10T06:58:26.365Z,61.40
2022-11-10T07:01:33.264Z,59.55
2022-11-10T07:04:42.911Z,63.83
2022-11-10T07:07:50.080Z,62.50
2022-11-10T07:10:57.711Z,64.15
2022-11-10T07:14:04.607Z,58.92
2022-11-10T07:17:11.482Z,59.83
2022-11-10T07:20:20.212Z,59.70
2022-11-10T07:23:27.063Z,62.13
2022-11-10T07:26:34.339Z,59.78
2022-11-10T07:29:41.425Z,57.30
2022-11-10T07:32:48.674Z,61.00
2022-11-10T07:35:58.893Z,64.35
2022-11-10T07:39:05.969Z,65.72
2022-11-10T07:42:12.805Z,63.67
2022-11-10T07:45:19.702Z,60.55
2022-11-10T07:48:26.647Z,64.90
2022-11-10T07:51:35.144Z,63.78
2022-11-10T07:54:42.147Z,62.92
2022-11-10T07:57:49.446Z,60.05
2022-11-10T08:00:56.537Z,59.92
2022-11-10T08:04:04.035Z,58.67
2022-11-10T08:07:12.421Z,58.50
2022-11-10T08:10:19.743Z,56.47
2022-11-10T08:13:26.723Z,62.00
2022-11-10T08:16:34.364Z,57.35
2022-11-10T08:19:41.368Z,56.60
2022-11-10T08:22:49.657Z,55.00
2022-11-10T08:26:00.152Z,57.55
2022-11-10T08:29:07.275Z,54.40
2022-11-10T08:32:14.534Z,56.50
2022-11-10T08:35:21.655Z,55.60
2022-11-10T08:38:30.080Z,56.65
2022-11-10T08:41:36.881Z,49.13
2022-11-10T08:44:43.952Z,51.03
2022-11-10T08:47:58.113Z,51.75
2022-11-10T08:51:05.506Z,52.15
2022-11-10T08:54:13.922Z,48.55
2022-11-10T08:57:21.067Z,48.22
2022-11-10T09:00:29.645Z,45.20
2022-11-10T09:03:37.235Z,49.22
2022-11-10T09:06:44.198Z,47.47
2022-11-10T09:10:06.881Z,45.78
2022-11-10T09:13:16.558Z,46.25
2022-11-10T09:16:23.628Z,48.30
2022-11-10T09:19:31.196Z,47.20
2022-11-10T09:22:38.693Z,49.67
2022-11-10T09:25:52.002Z,43.40
2022-11-10T09:28:58.917Z,46.47
2022-11-10T09:32:05.935Z,46.25
2022-11-10T09:35:13.484Z,47.97
2022-11-10T09:38:21.268Z,48.10
2022-11-10T09:41:31.189Z,42.88
2022-11-10T09:44:47.075Z,50.05
2022-11-10T09:48:01.850Z,43.92
2022-11-10T09:51:13.746Z,45.33
2022-11-10T09:54:33.431Z,44.70
2022-11-10T09:57:48.693Z,40.70
2022-11-10T10:01:13.007Z,44.75
2022-11-10T10:04:37.591Z,45.67
2022-11-10T10:07:52.582Z,39.47
2022-11-10T10:11:14.489Z,42.70
2022-11-10T10:14:57.965Z,47.65
2022-11-10T10:18:17.735Z,44.60
2022-11-10T10:21:45.749Z,45.05
2022-11-10T10:24:58.136Z,43.15
2022-11-10T10:28:13.726Z,38.33
2022-11-10T10:31:24.530Z,42.95
2022-11-10T10:34:34.739Z,46.80
2022-11-10T10:37:45.417Z,40.78
2022-11-10T10:40:54.157Z,34.90
2022-11-10T10:44:03.077Z,43.40
2022-11-10T10:47:10.141Z,41.50
2022-11-10T10:50:25.020Z,35.00
2022-11-10T10:53:32.476Z,37.50
2022-11-10T10:56:40.035Z,37.00
2022-11-10T10:59:47.164Z,36.80
2022-11-10T11:03:04.674Z,34.10
2022-11-10T11:06:25.595Z,35.22
2022-11-10T11:09:41.714Z,33.45
2022-11-10T11:12:48.822Z,35.45
2022-11-10T11:16:01.740Z,30.40
2022-11-10T11:19:10.167Z,31.25
2022-11-10T11:22:43.805Z,34.28
2022-11-10T15:54:58.738Z,27.65
2022-11-10T15:58:09.749Z,25.52
2022-11-10T16:01:18.518Z,22.65
2022-11-10T16:04:28.376Z,25.67
2022-11-10T16:07:35.699Z,22.85
2022-11-10T16:10:46.481Z,25.80
2022-11-10T16:13:54.868Z,22.85
2022-11-10T16:17:01.999Z,22.77
2022-11-10T16:20:15.204Z,23.00
2022-11-10T16:23:22.880Z,23.80
2022-11-10T16:26:32.201Z,20.85
2022-11-10T16:29:39.812Z,20.20
2022-11-10T16:32:46.924Z,23.00
2022-11-10T16:35:56.413Z,20.17
2022-11-10T16:39:04.632Z,25.25
2022-11-10T16:42:13.525Z,22.02
2022-11-10T16:45:22.496Z,17.70
2022-11-10T16:48:31.911Z,19.27
2022-11-10T16:51:47.187Z,24.00
2022-11-10T16:54:56.050Z,22.10
2022-11-10T16:58:04.752Z,18.55
2022-11-10T17:01:19.367Z,23.35
2022-11-10T17:04:26.731Z,19.35
2022-11-10T17:07:35.257Z,23.25
2022-11-10T17:10:42.130Z,20.52
2022-11-10T17:13:50.624Z,23.08
2022-11-10T17:16:57.655Z,22.05
2022-11-10T17:20:06.695Z,24.25
2022-11-10T17:23:17.413Z,23.58
2022-11-10T17:26:24.921Z,19.20
2022-11-10T17:29:33.397Z,21.00
2022-11-10T17:33:03.476Z,27.17
2022-11-10T17:36:14.023Z,24.92
2022-11-10T17:39:22.671Z,20.83
2022-11-10T17:42:29.450Z,25.73
2022-11-10T17:45:37.944Z,23.10
2022-11-10T17:48:47.674Z,23.42
2022-11-10T17:51:55.240Z,22.55
2022-11-10T17:55:02.395Z,22.88
2022-11-10T17:58:10.593Z,23.55
2022-11-10T18:01:22.603Z,24.05
2022-11-10T18:04:29.924Z,28.00
2022-11-10T18:07:37.337Z,24.23
2022-11-10T18:10:47.766Z,24.80
2022-11-10T18:13:54.826Z,25.58
2022-11-10T18:17:03.342Z,24.88
2022-11-10T18:20:11.860Z,21.45
2022-11-10T18:23:19.315Z,24.30
2022-11-10T18:26:26.602Z,23.17
2022-11-10T18:29:33.780Z,26.35
2022-11-10T18:32:42.502Z,25.48
2022-11-10T18:35:49.958Z,25.55
2022-11-10T18:38:57.403Z,32.42
2022-11-10T18:42:04.873Z,29.95
2022-11-10T18:45:13.049Z,26.48
2022-11-10T18:48:25.570Z,24.77
2022-11-10T18:51:36.079Z,24.20
2022-11-10T18:54:43.014Z,25.02
2022-11-10T18:57:50.308Z,24.30
2022-11-10T19:01:04.425Z,22.45
2022-11-10T19:04:13.898Z,25.42
2022-11-10T19:07:21.117Z,23.58
2022-11-10T19:10:27.988Z,25.70
2022-11-10T19:13:35.525Z,22.25
2022-11-10T19:16:42.625Z,24.27
2022-11-10T19:19:56.147Z,22.52
2022-11-10T19:23:03.520Z,28.08
2022-11-10T19:26:12.253Z,23.95
2022-11-10T19:29:21.417Z,27.83
2022-11-10T19:32:28.350Z,27.08
2022-11-10T19:35:42.118Z,24.00
2022-11-10T19:38:49.077Z,30.02
2022-11-10T19:41:56.754Z,27.80
2022-11-10T19:45:03.945Z,26.35
2022-11-10T19:48:10.900Z,26.95
2022-11-10T19:51:20.254Z,23.20
2022-11-10T19:54:27.379Z,29.08
2022-11-10T19:57:34.470Z,28.33
2022-11-10T20:00:45.974Z,25.70
2022-11-10T20:03:53.098Z,27.27
2022-11-10T20:07:18.911Z,28.88
2022-11-10T20:10:26.535Z,25.80
2022-11-10T20:13:34.533Z,29.60
2022-11-10T20:16:41.389Z,29.42
2022-11-10T20:19:49.177Z,25.58
2022-11-10T20:23:02.434Z,26.35
2022-11-10T20:26:11.900Z,33.53
2022-11-10T20:29:19.089Z,29.75
2022-11-10T20:32:27.156Z,32.13
2022-11-10T20:35:39.983Z,29.10
2022-11-10T20:38:48.805Z,28.95
2022-11-10T20:41:55.948Z,23.90
2022-11-10T20:45:02.965Z,28.77
2022-11-10T20:48:10.069Z,27.70
2022-11-10T20:51:19.295Z,24.58
2022-11-10T20:54:27.825Z,27.05
2022-11-10T20:57:35.104Z,31.95
2022-11-10T21:00:44.061Z,28.05
2022-11-10T21:03:51.511Z,26.98
2022-11-10T21:06:59.089Z,30.50
2022-11-10T21:10:08.552Z,25.45
2022-11-10T21:13:15.886Z,28.73
2022-11-10T21:16:22.971Z,30.52
2022-11-10T21:19:34.161Z,26.35
2022-11-10T21:22:41.371Z,24.90
2022-11-10T21:25:55.237Z,28.67
2022-11-10T21:29:02.972Z,30.63
2022-11-10T21:32:10.306Z,26.98
2022-11-10T21:35:18.186Z,31.67
2022-11-10T21:38:25.971Z,27.33
2022-11-10T21:41:34.893Z,30.30
2022-11-10T21:44:42.040Z,33.58
2022-11-10T21:47:49.099Z,32.60
2022-11-10T21:51:01.063Z,27.65
2022-11-10T21:54:10.498Z,32.42
2022-11-10T21:57:18.881Z,31.40
2022-11-10T22:00:27.811Z,30.48
2022-11-10T22:03:36.147Z,24.63
2022-11-10T22:07:01.001Z,24.40
2022-11-10T22:10:27.642Z,21.73
2022-11-10T22:13:53.437Z,23.50
2022-11-10T22:17:18.542Z,24.13
2022-11-10T22:20:25.823Z,25.35
2022-11-10T22:24:02.401Z,24.15
2022-11-10T22:27:09.795Z,24.58
2022-11-10T22:30:18.199Z,34.33
2022-11-10T22:33:28.162Z,25.70
2022-11-10T22:36:35.404Z,26.27
2022-11-10T22:40:00.074Z,30.13
2022-11-10T22:43:24.943Z,26.00
2022-11-10T22:46:36.520Z,29.27
2022-11-10T22:49:44.157Z,27.40
2022-11-10T22:52:51.136Z,35.45
2022-11-10T22:56:01.260Z,28.45
2022-11-10T22:59:08.488Z,27.27
2022-11-10T23:02:16.725Z,28.17
2022-11-10T23:05:23.640Z,28.33
2022-11-10T23:08:31.558Z,30.48
2022-11-10T23:11:38.477Z,28.13
2022-11-10T23:14:45.602Z,29.23
2022-11-10T23:17:55.600Z,27.15
2022-11-10T23:21:04.724Z,31.33
2022-11-10T23:24:13.611Z,24.75
2022-11-10T23:27:20.464Z,34.28
2022-11-10T23:30:27.429Z,26.50
2022-11-10T23:33:36.228Z,31.10
2022-11-10T23:36:43.415Z,28.52
2022-11-10T23:39:50.631Z,28.70
2022-11-10T23:42:57.691Z,26.70
2022-11-10T23:46:07.476Z,26.70
2022-11-10T23:49:16.720Z,31.83
2022-11-10T23:52:24.214Z,32.40
2022-11-10T23:55:31.202Z,25.85
2022-11-10T23:58:38.549Z,31.02
